Terminal Aerodrome Forecast
Issued by NWS

Home | Current Version | Previous Version | Text Only | Print | Product List | Glossary On
Versions: 1 2 3 4 5 6 7 8 9 10 11 12 13 14
000
FTAK31 PANC 240521
TAFADQ
TAF
PADQ 240521Z 2406/2506 17011KT P6SM -SHRA SCT025 OVC040
     FM240900 16011KT P6SM -RA SCT025 OVC035 WS020/23040KT
     FM242100 20015KT P6SM -SHRA SCT025 OVC035
     FM250000 25007KT P6SM SCT040=

USA.gov is the U.S. government's official web portal to all federal, state and local government web resources and services.